createdAt,value
2018-01-27T00:00:17.244Z,19.47
2018-01-27T00:02:44.866Z,17.13
2018-01-27T00:05:12.442Z,19.20
2018-01-27T00:07:40.024Z,17.60
2018-01-27T00:10:07.559Z,17.70
2018-01-27T00:12:35.131Z,19.23
2018-01-27T00:15:02.665Z,18.63
2018-01-27T00:17:30.252Z,21.07
2018-01-27T00:19:57.797Z,18.93
2018-01-27T00:22:25.377Z,18.80
2018-01-27T00:24:52.950Z,19.23
2018-01-27T00:27:20.526Z,19.80
2018-01-27T00:29:48.065Z,18.57
2018-01-27T00:32:15.648Z,16.80
2018-01-27T00:34:43.190Z,17.73
2018-01-27T00:37:10.768Z,17.93
2018-01-27T00:39:38.302Z,18.17
2018-01-27T00:42:05.881Z,18.70
2018-01-27T00:44:33.421Z,17.20
2018-01-27T00:47:01.006Z,17.97
2018-01-27T00:49:28.544Z,15.97
2018-01-27T00:51:56.124Z,16.63
2018-01-27T00:54:23.663Z,18.17
2018-01-27T00:56:51.243Z,16.03
2018-01-27T00:59:18.788Z,16.27
2018-01-27T01:01:46.416Z,15.93
2018-01-27T01:04:13.944Z,16.97
2018-01-27T01:06:42.283Z,16.37
2018-01-27T01:09:09.812Z,16.67
2018-01-27T01:11:37.391Z,15.00
2018-01-27T01:14:04.925Z,14.90
2018-01-27T01:16:32.507Z,15.37
2018-01-27T01:19:00.045Z,16.70
2018-01-27T01:21:27.635Z,16.97
2018-01-27T01:23:55.191Z,15.37
2018-01-27T01:28:53.498Z,15.00
2018-01-27T01:31:21.042Z,16.10
2018-01-27T01:33:48.624Z,15.67
2018-01-27T01:36:16.165Z,17.00
2018-01-27T01:38:43.743Z,13.93
2018-01-27T01:41:11.280Z,16.27
2018-01-27T01:43:44.548Z,15.97
2018-01-27T01:46:12.088Z,14.30
2018-01-27T01:48:39.670Z,15.30
2018-01-27T01:51:07.206Z,14.60
2018-01-27T01:53:35.562Z,15.30
2018-01-27T01:56:03.103Z,14.57
2018-01-27T01:58:30.688Z,15.13
2018-01-27T02:00:58.296Z,14.80
2018-01-27T02:03:25.853Z,15.10
2018-01-27T02:05:53.392Z,15.00
2018-01-27T02:08:20.968Z,14.60
2018-01-27T02:10:48.501Z,15.77
2018-01-27T02:13:16.850Z,14.07
2018-01-27T02:15:44.385Z,13.40
2018-01-27T02:18:11.975Z,14.63
2018-01-27T02:20:39.541Z,14.23
2018-01-27T02:23:07.120Z,14.07
2018-01-27T02:25:35.428Z,14.70
2018-01-27T02:28:03.003Z,14.43
2018-01-27T02:30:30.536Z,17.07
2018-01-27T02:32:58.112Z,13.40
2018-01-27T02:35:25.661Z,16.20
2018-01-27T02:37:53.243Z,14.80
2018-01-27T02:40:20.779Z,19.73
2018-01-27T02:42:48.380Z,15.43
2018-01-27T02:45:15.923Z,14.00
2018-01-27T02:47:43.464Z,14.10
2018-01-27T02:50:11.044Z,14.43
2018-01-27T02:52:38.579Z,13.13
2018-01-27T02:55:06.158Z,15.70
2018-01-27T02:57:33.695Z,14.97
2018-01-27T03:00:01.285Z,15.80
2018-01-27T03:02:28.823Z,13.93
2018-01-27T03:04:56.407Z,13.80
2018-01-27T03:07:23.948Z,13.43
2018-01-27T03:09:51.536Z,13.30
2018-01-27T03:12:19.079Z,14.93
2018-01-27T03:14:46.714Z,14.70
2018-01-27T03:17:14.983Z,13.67
2018-01-27T03:19:42.571Z,14.10
2018-01-27T03:22:10.103Z,13.73
2018-01-27T03:24:37.688Z,13.50
2018-01-27T03:27:05.232Z,12.57
2018-01-27T03:29:32.809Z,13.60
2018-01-27T03:32:00.468Z,13.13
2018-01-27T03:34:28.056Z,13.80
2018-01-27T03:36:55.600Z,13.20
2018-01-27T03:39:23.178Z,11.73
2018-01-27T03:41:50.715Z,13.57
2018-01-27T03:44:18.297Z,11.90
2018-01-27T03:46:45.840Z,14.60
2018-01-27T03:49:13.415Z,12.27
2018-01-27T03:51:40.955Z,14.93
2018-01-27T03:54:08.499Z,15.13
2018-01-27T03:56:36.075Z,13.03
2018-01-27T03:59:03.656Z,12.10
2018-01-27T04:01:31.196Z,13.70
2018-01-27T04:03:58.776Z,12.23
2018-01-27T04:06:26.321Z,13.07
2018-01-27T04:08:53.909Z,13.47
2018-01-27T04:11:22.222Z,12.60
2018-01-27T04:13:49.804Z,13.00
2018-01-27T04:16:17.348Z,11.93
2018-01-27T04:18:44.923Z,12.27
2018-01-27T04:21:12.461Z,12.80
2018-01-27T04:23:40.051Z,12.60
2018-01-27T04:26:07.593Z,12.30
2018-01-27T04:28:35.178Z,13.03
2018-01-27T04:31:02.719Z,11.70
2018-01-27T04:33:30.295Z,11.87
2018-01-27T04:35:57.834Z,11.93
2018-01-27T04:38:25.418Z,12.90
2018-01-27T04:40:52.957Z,13.33
2018-01-27T04:43:20.533Z,11.90
2018-01-27T04:45:48.106Z,11.67
2018-01-27T04:48:15.719Z,12.13
2018-01-27T04:50:43.254Z,12.70
2018-01-27T04:53:11.616Z,11.70
2018-01-27T04:55:39.149Z,11.53
2018-01-27T04:58:06.696Z,12.67
2018-01-27T05:00:34.282Z,12.03
2018-01-27T05:03:01.828Z,12.32
2018-01-27T05:05:29.407Z,13.20
2018-01-27T05:07:56.952Z,12.80
2018-01-27T05:10:24.576Z,12.57
2018-01-27T05:12:52.863Z,12.30
2018-01-27T05:15:20.438Z,12.07
2018-01-27T05:17:47.979Z,11.70
2018-01-27T05:20:15.559Z,11.30
2018-01-27T05:22:43.106Z,12.20
2018-01-27T05:25:10.682Z,11.27
2018-01-27T05:27:38.231Z,12.70
2018-01-27T05:30:05.811Z,11.53
2018-01-27T05:32:33.410Z,12.10
2018-01-27T05:35:01.762Z,13.55
2018-01-27T05:37:29.307Z,13.18
2018-01-27T05:39:56.903Z,13.00
2018-01-27T05:42:25.220Z,12.93
2018-01-27T05:44:52.799Z,13.00
2018-01-27T05:47:20.355Z,13.90
2018-01-27T05:49:48.013Z,12.70
2018-01-27T05:52:15.542Z,14.13
2018-01-27T05:54:43.115Z,13.00
2018-01-27T05:57:10.651Z,12.43
2018-01-27T05:59:38.995Z,12.90
2018-01-27T06:02:06.529Z,14.70
2018-01-27T06:04:34.121Z,13.18
2018-01-27T06:07:01.660Z,14.32
2018-01-27T06:09:29.237Z,15.33
2018-01-27T06:11:56.778Z,14.40
2018-01-27T06:14:24.374Z,15.63
2018-01-27T06:16:52.691Z,16.33
2018-01-27T06:19:20.276Z,17.17
2018-01-27T06:21:47.820Z,18.70
2018-01-27T06:24:15.398Z,21.97
2018-01-27T06:26:42.936Z,22.20
2018-01-27T06:29:10.517Z,21.40
2018-01-27T06:31:38.047Z,22.37
2018-01-27T06:34:05.632Z,23.47
2018-01-27T06:36:33.177Z,24.73
2018-01-27T06:39:00.795Z,23.40
2018-01-27T06:41:29.096Z,25.07
2018-01-27T06:43:56.721Z,26.00
2018-01-27T06:46:24.256Z,24.20
2018-01-27T06:48:51.846Z,22.98
2018-01-27T06:51:19.390Z,25.15
2018-01-27T06:53:46.984Z,22.97
2018-01-27T06:56:15.282Z,23.48
2018-01-27T06:58:42.864Z,22.40
2018-01-27T07:01:10.408Z,20.45
2018-01-27T07:03:38.007Z,19.42
2018-01-27T07:06:05.552Z,23.73
2018-01-27T07:08:33.107Z,23.93
2018-01-27T07:11:00.689Z,26.43
2018-01-27T07:13:28.227Z,26.02
2018-01-27T07:15:55.815Z,23.95
2018-01-27T07:18:23.364Z,25.58
2018-01-27T07:20:50.948Z,28.45
2018-01-27T07:23:19.256Z,28.77
2018-01-27T07:25:46.838Z,27.85
2018-01-27T07:28:14.379Z,28.27
2018-01-27T07:30:41.969Z,29.30
2018-01-27T07:33:09.509Z,27.40
2018-01-27T07:35:37.097Z,29.73
2018-01-27T07:38:04.643Z,29.35
2018-01-27T07:40:32.224Z,29.35
2018-01-27T07:43:00.603Z,27.90
2018-01-27T07:45:28.200Z,30.70
2018-01-27T07:47:55.742Z,28.12
2018-01-27T07:50:24.104Z,29.12
2018-01-27T07:52:51.648Z,29.77
2018-01-27T07:55:19.233Z,29.45
2018-01-27T07:57:47.545Z,28.83
2018-01-27T08:00:15.133Z,32.13
2018-01-27T08:02:42.675Z,31.40
2018-01-27T08:05:10.364Z,30.50
2018-01-27T08:07:37.917Z,32.10
2018-01-27T08:10:05.509Z,31.15
2018-01-27T08:12:33.048Z,33.33
2018-01-27T08:15:00.644Z,31.20
2018-01-27T08:17:28.956Z,32.67
2018-01-27T08:19:56.542Z,29.80
2018-01-27T08:22:24.083Z,33.33
2018-01-27T08:24:51.704Z,33.03
2018-01-27T08:27:20.008Z,32.58
2018-01-27T08:29:47.598Z,35.15
2018-01-27T08:32:15.143Z,34.08
2018-01-27T08:34:42.735Z,32.83
2018-01-27T08:37:10.277Z,35.38
2018-01-27T08:39:37.867Z,34.03
2018-01-27T08:42:05.411Z,33.08
2018-01-27T08:44:32.994Z,32.73
2018-01-27T08:47:01.308Z,33.53
2018-01-27T08:49:28.888Z,33.03
2018-01-27T08:51:56.429Z,34.17
2018-01-27T08:54:24.019Z,35.30
2018-01-27T08:56:51.681Z,32.07
2018-01-27T08:59:19.263Z,32.33
2018-01-27T09:01:46.884Z,33.92
2018-01-27T09:04:14.468Z,33.42
2018-01-27T09:06:42.013Z,35.10
2018-01-27T09:09:09.599Z,31.70
2018-01-27T09:11:37.962Z,33.72
2018-01-27T09:14:05.695Z,32.80
2018-01-27T09:16:33.371Z,34.35
2018-01-27T09:19:00.957Z,34.37
2018-01-27T09:21:28.511Z,35.17
2018-01-27T09:23:56.094Z,33.42
2018-01-27T09:26:23.647Z,33.13
2018-01-27T09:28:51.236Z,36.90
2018-01-27T09:31:18.944Z,36.25
2018-01-27T09:33:46.551Z,39.63
2018-01-27T09:36:14.856Z,34.42
2018-01-27T09:38:42.456Z,35.07
2018-01-27T09:41:10.001Z,32.33
2018-01-27T09:43:37.627Z,32.38
2018-01-27T09:46:05.178Z,34.17
2018-01-27T09:48:33.540Z,33.60
2018-01-27T09:51:01.850Z,33.70
2018-01-27T09:53:29.444Z,34.38
2018-01-27T09:55:57.003Z,32.05
2018-01-27T09:58:24.958Z,33.35
2018-01-27T10:00:52.515Z,36.78
2018-01-27T10:03:20.100Z,34.53
2018-01-27T10:05:47.641Z,34.60
2018-01-27T10:08:15.228Z,34.55
2018-01-27T10:10:42.778Z,33.85
2018-01-27T10:13:10.357Z,34.05
2018-01-27T10:15:37.900Z,33.65
2018-01-27T10:18:05.496Z,35.63
2018-01-27T10:20:33.811Z,33.80
2018-01-27T10:23:01.390Z,34.45
2018-01-27T10:25:28.935Z,34.30
2018-01-27T10:27:56.525Z,33.43
2018-01-27T10:30:24.072Z,33.50
2018-01-27T10:32:51.699Z,32.70
2018-01-27T10:35:19.299Z,34.45
2018-01-27T10:37:46.911Z,34.07
2018-01-27T10:40:14.482Z,34.92
2018-01-27T10:42:42.084Z,33.10
2018-01-27T10:45:09.639Z,32.72
2018-01-27T10:47:37.262Z,30.83
2018-01-27T10:50:04.812Z,31.92
2018-01-27T10:52:32.366Z,30.90
2018-01-27T10:54:59.970Z,32.60
2018-01-27T10:57:27.526Z,31.45
2018-01-27T10:59:55.115Z,32.20
2018-01-27T11:02:22.678Z,32.47
2018-01-27T11:04:51.037Z,29.75
2018-01-27T11:07:18.579Z,28.80
2018-01-27T11:09:46.160Z,29.80
2018-01-27T11:12:13.705Z,27.90
2018-01-27T11:14:41.338Z,28.40
2018-01-27T11:17:08.885Z,26.42
2018-01-27T11:19:37.248Z,26.53
2018-01-27T11:22:05.565Z,26.90
2018-01-27T11:24:33.166Z,24.73
2018-01-27T11:27:00.715Z,25.70
2018-01-27T11:29:28.335Z,26.00
2018-01-27T11:31:55.885Z,27.77
2018-01-27T11:34:23.483Z,27.73
2018-01-27T11:36:51.041Z,25.55
2018-01-27T11:39:18.633Z,25.70
2018-01-27T11:41:46.197Z,25.97
2018-01-27T11:44:13.788Z,25.55
2018-01-27T11:46:42.086Z,25.80
2018-01-27T11:49:09.679Z,25.10
2018-01-27T11:51:37.233Z,24.00
2018-01-27T11:54:04.815Z,24.23
2018-01-27T11:56:32.360Z,24.12
2018-01-27T11:58:59.957Z,22.95
2018-01-27T12:01:28.265Z,23.50
2018-01-27T12:03:55.867Z,24.42
2018-01-27T12:06:23.485Z,25.62
2018-01-27T12:08:51.102Z,26.52
2018-01-27T12:11:19.407Z,23.20
2018-01-27T12:13:46.991Z,26.23
2018-01-27T12:16:14.537Z,23.98
2018-01-27T12:18:42.124Z,22.95
2018-01-27T12:21:09.771Z,24.27
2018-01-27T12:23:37.359Z,26.50
2018-01-27T12:26:04.908Z,23.43
2018-01-27T12:28:32.506Z,24.77
2018-01-27T12:31:00.813Z,24.35
2018-01-27T12:33:28.409Z,22.73
2018-01-27T12:35:55.951Z,25.10
2018-01-27T12:38:23.598Z,24.55
2018-01-27T12:40:51.143Z,26.90
2018-01-27T12:43:19.487Z,25.63
2018-01-27T12:45:47.116Z,22.03
2018-01-27T12:48:14.715Z,24.45
2018-01-27T12:50:42.259Z,25.23
2018-01-27T12:53:09.850Z,25.88
2018-01-27T12:55:38.194Z,25.30
2018-01-27T12:58:05.787Z,24.77
2018-01-27T13:00:34.100Z,22.62
2018-01-27T13:03:01.727Z,24.60
2018-01-27T13:05:30.035Z,23.23
2018-01-27T13:07:57.654Z,24.42
2018-01-27T13:10:25.962Z,23.87
2018-01-27T13:12:53.646Z,22.95
2018-01-27T13:15:21.195Z,25.80
2018-01-27T13:17:48.784Z,25.37
2018-01-27T13:20:16.428Z,22.73
2018-01-27T13:22:44.045Z,24.07
2018-01-27T13:25:12.368Z,23.77
2018-01-27T13:27:39.912Z,23.50
2018-01-27T13:30:07.543Z,22.80
2018-01-27T13:32:35.843Z,21.63
2018-01-27T13:35:03.430Z,21.57
2018-01-27T13:37:30.968Z,21.10
2018-01-27T13:39:58.597Z,22.25
2018-01-27T13:42:26.981Z,22.67
2018-01-27T13:44:55.459Z,24.50
2018-01-27T13:47:23.891Z,23.30
2018-01-27T13:49:51.867Z,21.53
2018-01-27T13:52:19.626Z,22.80
2018-01-27T13:54:47.236Z,22.63
2018-01-27T13:57:15.562Z,22.20
2018-01-27T13:59:43.157Z,22.27
2018-01-27T14:02:10.710Z,24.07
2018-01-27T14:04:38.358Z,22.63
2018-01-27T14:07:05.898Z,22.27
2018-01-27T14:09:33.588Z,21.63
2018-01-27T14:12:01.180Z,22.50
2018-01-27T14:14:29.529Z,21.47
2018-01-27T14:16:57.080Z,23.58
2018-01-27T14:19:24.670Z,24.63
2018-01-27T14:21:52.979Z,22.87
2018-01-27T14:24:20.577Z,20.43
2018-01-27T14:26:48.172Z,20.63
2018-01-27T14:29:15.807Z,21.70
2018-01-27T14:31:43.356Z,21.87
2018-01-27T14:34:10.980Z,21.30
2018-01-27T14:36:39.562Z,21.52
2018-01-27T14:39:07.155Z,22.47
2018-01-27T14:41:34.695Z,21.80
2018-01-27T14:44:02.297Z,22.15
2018-01-27T14:46:29.884Z,21.10
2018-01-27T14:48:58.282Z,21.77
2018-01-27T14:51:26.575Z,22.63
2018-01-27T14:53:54.168Z,21.23
2018-01-27T14:56:21.712Z,21.50
2018-01-27T14:58:49.292Z,20.67
2018-01-27T15:01:17.599Z,18.20
2018-01-27T15:03:45.954Z,20.83
2018-01-27T15:06:13.503Z,20.92
2018-01-27T15:08:41.124Z,19.07
2018-01-27T15:11:09.424Z,19.97
2018-01-27T15:13:37.052Z,19.93
2018-01-27T15:16:04.614Z,20.25
2018-01-27T15:18:32.212Z,20.92
2018-01-27T15:20:59.797Z,21.00
2018-01-27T15:23:27.372Z,21.27
2018-01-27T15:25:54.905Z,21.47
2018-01-27T15:28:22.483Z,20.80
2018-01-27T15:30:50.025Z,21.40
2018-01-27T15:33:17.649Z,20.30
2018-01-27T15:35:45.207Z,20.37
2018-01-27T15:38:12.797Z,20.33
2018-01-27T15:40:40.389Z,21.62
2018-01-27T15:43:07.923Z,22.53
2018-01-27T15:45:35.558Z,22.10
2018-01-27T15:48:03.157Z,24.00
2018-01-27T15:50:30.779Z,23.70
2018-01-27T15:52:58.315Z,24.97
2018-01-27T15:55:25.901Z,26.20
2018-01-27T15:57:53.488Z,26.33
2018-01-27T16:00:21.074Z,26.63
2018-01-27T16:02:49.483Z,26.47
2018-01-27T16:05:17.062Z,27.20
2018-01-27T16:07:44.827Z,27.27
2018-01-27T16:10:12.419Z,29.93
2018-01-27T16:12:39.958Z,29.60
2018-01-27T16:15:07.556Z,30.77
2018-01-27T16:17:35.092Z,28.40
2018-01-27T16:20:02.672Z,30.20
2018-01-27T16:22:30.203Z,28.53
2018-01-27T16:24:57.832Z,29.37
2018-01-27T16:27:25.371Z,28.23
2018-01-27T16:29:53.719Z,29.23
2018-01-27T16:32:21.261Z,28.60
2018-01-27T16:34:48.841Z,28.13
2018-01-27T16:37:16.429Z,27.52
2018-01-27T16:39:44.774Z,28.40
2018-01-27T16:42:12.354Z,27.23
2018-01-27T16:44:40.001Z,28.23
2018-01-27T16:47:07.548Z,29.47
2018-01-27T16:49:35.216Z,31.27
2018-01-27T16:52:02.792Z,30.57
2018-01-27T16:54:30.377Z,30.97
2018-01-27T16:56:57.977Z,30.77
2018-01-27T16:59:25.604Z,31.70
2018-01-27T17:01:53.191Z,31.10
2018-01-27T17:04:20.775Z,30.62
2018-01-27T17:06:48.370Z,28.48
2018-01-27T17:09:16.713Z,31.37
2018-01-27T17:11:44.302Z,33.07
2018-01-27T17:14:12.704Z,32.22
2018-01-27T17:16:40.267Z,29.65
2018-01-27T17:19:07.911Z,31.80
2018-01-27T17:21:36.274Z,33.87
2018-01-27T17:24:03.869Z,32.58
2018-01-27T17:26:31.416Z,29.85
2018-01-27T17:28:59.000Z,33.17
2018-01-27T17:31:26.571Z,33.50
2018-01-27T17:33:54.204Z,33.80
2018-01-27T17:36:21.799Z,33.30
2018-01-27T17:38:49.440Z,30.73
2018-01-27T17:41:16.980Z,32.60
2018-01-27T17:43:45.328Z,32.70
2018-01-27T17:46:12.926Z,33.10
2018-01-27T17:48:40.475Z,29.42
2018-01-27T17:51:08.869Z,30.90
2018-01-27T17:53:36.497Z,31.23
2018-01-27T17:56:04.085Z,32.77
2018-01-27T17:58:31.681Z,35.08
2018-01-27T18:00:59.274Z,30.12
2018-01-27T18:03:26.899Z,29.87
2018-01-27T18:05:54.538Z,30.37
2018-01-27T18:08:22.140Z,29.92
2018-01-27T18:10:49.728Z,27.30
2018-01-27T18:13:18.088Z,29.33
2018-01-27T18:15:45.741Z,30.70
2018-01-27T18:18:13.280Z,28.10
2018-01-27T18:20:40.905Z,29.83
2018-01-27T18:23:09.210Z,29.73
2018-01-27T18:25:36.878Z,29.40
2018-01-27T18:28:04.467Z,28.25
2018-01-27T18:30:32.050Z,27.77
2018-01-27T18:33:00.360Z,29.45
2018-01-27T18:35:27.948Z,27.35
2018-01-27T18:37:55.495Z,32.38
2018-01-27T18:40:23.121Z,31.93
2018-01-27T18:42:51.755Z,30.97
2018-01-27T18:45:19.343Z,30.60
2018-01-27T18:47:46.879Z,32.50
2018-01-27T18:50:14.519Z,32.00
2018-01-27T18:52:42.056Z,30.62
2018-01-27T18:55:09.682Z,30.42
2018-01-27T18:57:38.740Z,30.37
2018-01-27T19:00:06.377Z,31.45
2018-01-27T19:02:33.987Z,30.48
2018-01-27T19:05:01.629Z,38.05
2018-01-27T19:07:29.198Z,45.15
2018-01-27T19:09:56.802Z,49.55
2018-01-27T19:12:25.151Z,31.30
2018-01-27T19:14:52.794Z,48.65
2018-01-27T19:17:20.449Z,36.45
2018-01-27T19:19:48.253Z,30.58
2018-01-27T19:22:15.903Z,30.62
2018-01-27T19:24:43.679Z,31.08
2018-01-27T19:27:12.115Z,30.90
2018-01-27T19:29:39.748Z,32.22
2018-01-27T19:32:08.202Z,30.95
2018-01-27T19:34:36.767Z,30.30
2018-01-27T19:37:04.363Z,30.30
2018-01-27T19:39:32.998Z,30.07
2018-01-27T19:42:00.763Z,30.20
2018-01-27T19:44:28.409Z,31.15
2018-01-27T19:46:55.955Z,30.47
2018-01-27T19:49:23.638Z,29.70
2018-01-27T19:51:51.240Z,30.17
2018-01-27T19:54:19.789Z,30.35
2018-01-27T19:56:47.450Z,31.10
2018-01-27T19:59:15.121Z,32.00
2018-01-27T20:01:42.745Z,32.60
2018-01-27T20:04:10.644Z,29.80
2018-01-27T20:06:38.270Z,31.27
2018-01-27T20:09:05.914Z,31.25
2018-01-27T20:11:34.448Z,29.98
2018-01-27T20:14:02.216Z,31.02
2018-01-27T20:16:29.877Z,30.42
2018-01-27T20:18:58.358Z,31.40
2018-01-27T20:21:25.920Z,29.77
2018-01-27T20:23:53.570Z,31.93
2018-01-27T20:26:21.265Z,32.72
2018-01-27T20:28:48.884Z,31.73
2018-01-27T20:31:16.570Z,33.08
2018-01-27T20:33:44.231Z,33.22
2018-01-27T20:36:11.890Z,33.72
2018-01-27T20:38:39.549Z,31.60
2018-01-27T20:41:07.139Z,31.42
2018-01-27T20:43:36.411Z,30.00
2018-01-27T20:46:04.009Z,31.30
2018-01-27T20:48:31.642Z,32.65
2018-01-27T20:50:59.285Z,35.00
2018-01-27T20:53:26.966Z,32.80
2018-01-27T20:55:54.622Z,32.00
2018-01-27T20:58:22.288Z,31.97
2018-01-27T21:00:49.982Z,29.00
2018-01-27T21:03:18.393Z,30.50
2018-01-27T21:05:45.931Z,31.37
2018-01-27T21:08:14.343Z,29.63
2018-01-27T21:10:41.891Z,30.02
2018-01-27T21:13:09.581Z,29.85
2018-01-27T21:15:37.171Z,31.15
2018-01-27T21:18:04.756Z,31.90
2018-01-27T21:20:33.116Z,29.05
2018-01-27T21:23:00.751Z,29.45
2018-01-27T21:25:28.417Z,30.27
2018-01-27T21:27:56.016Z,28.65
2018-01-27T21:30:24.370Z,29.75
2018-01-27T21:32:51.997Z,30.27
2018-01-27T21:35:19.585Z,31.45
2018-01-27T21:37:47.338Z,31.00
2018-01-27T21:40:14.923Z,30.30
2018-01-27T21:42:42.510Z,32.25
2018-01-27T21:45:10.871Z,32.75
2018-01-27T21:47:39.238Z,32.10
2018-01-27T21:50:07.603Z,32.28
2018-01-27T21:52:35.254Z,31.50
2018-01-27T21:55:02.859Z,29.25
2018-01-27T21:57:31.163Z,30.23
2018-01-27T21:59:58.801Z,31.98
2018-01-27T22:02:27.164Z,31.73
2018-01-27T22:04:54.802Z,30.33
2018-01-27T22:07:22.381Z,28.50
2018-01-27T22:09:49.962Z,28.42
2018-01-27T22:12:18.315Z,29.85
2018-01-27T22:14:45.952Z,29.17
2018-01-27T22:17:13.537Z,29.92
2018-01-27T22:19:41.178Z,31.45
2018-01-27T22:22:08.767Z,29.50
2018-01-27T22:24:36.409Z,28.98
2018-01-27T22:27:04.037Z,29.70
2018-01-27T22:29:31.627Z,29.80
2018-01-27T22:31:59.209Z,29.05
2018-01-27T22:34:26.838Z,29.60
2018-01-27T22:36:54.425Z,33.38
2018-01-27T22:39:22.063Z,33.17
2018-01-27T22:41:49.654Z,29.10
2018-01-27T22:44:17.288Z,27.77
2018-01-27T22:46:44.827Z,27.17
2018-01-27T22:49:12.466Z,28.40
2018-01-27T22:51:40.812Z,28.93
2018-01-27T22:54:08.396Z,24.83
2018-01-27T22:56:36.703Z,31.37
2018-01-27T22:59:04.334Z,34.40
2018-01-27T23:01:32.694Z,32.38
2018-01-27T23:04:00.330Z,33.30
2018-01-27T23:06:27.924Z,27.45
2018-01-27T23:08:55.545Z,28.10
2018-01-27T23:11:23.087Z,29.30
2018-01-27T23:13:50.714Z,27.77
2018-01-27T23:16:19.020Z,29.65
2018-01-27T23:18:46.654Z,32.03
2018-01-27T23:21:15.016Z,28.92
2018-01-27T23:23:42.603Z,28.10
2018-01-27T23:26:10.909Z,34.38
2018-01-27T23:28:38.543Z,30.85
2018-01-27T23:31:07.062Z,29.50
2018-01-27T23:33:34.709Z,30.30
2018-01-27T23:36:02.315Z,29.60
2018-01-27T23:38:29.936Z,30.85
2018-01-27T23:40:57.481Z,30.00
2018-01-27T23:43:25.025Z,27.83
2018-01-27T23:45:52.663Z,28.95
2018-01-27T23:48:20.248Z,28.75
2018-01-27T23:50:48.557Z,28.40
2018-01-27T23:53:16.181Z,29.75
2018-01-27T23:55:44.531Z,26.65
2018-01-27T23:58:12.119Z,36.28
